sensor_id;sensor_type;location;lat;lon;timestamp;pressure;altitude;pressure_sealevel;temperature
15079;BMP180;6932;51.438;5.470;2023-04-10T00:01:15;101758.00;;;16.00
15079;BMP180;6932;51.438;5.470;2023-04-10T00:03:41;101749.00;;;16.00
15079;BMP180;6932;51.438;5.470;2023-04-10T00:06:07;101743.00;;;16.00
15079;BMP180;6932;51.438;5.470;2023-04-10T00:08:33;101739.00;;;16.00
15079;BMP180;6932;51.438;5.470;2023-04-10T00:11:00;101733.00;;;16.00
15079;BMP180;6932;51.438;5.470;2023-04-10T00:14:15;101733.00;;;16.00
15079;BMP180;6932;51.438;5.470;2023-04-10T00:16:48;101721.00;;;15.90
15079;BMP180;6932;51.438;5.470;2023-04-10T00:19:14;101716.00;;;16.00
15079;BMP180;6932;51.438;5.470;2023-04-10T00:21:40;101708.00;;;16.00
15079;BMP180;6932;51.438;5.470;2023-04-10T00:24:06;101702.00;;;16.00
15079;BMP180;6932;51.438;5.470;2023-04-10T00:26:33;101697.00;;;16.00
15079;BMP180;6932;51.438;5.470;2023-04-10T00:29:18;101689.00;;;15.90
15079;BMP180;6932;51.438;5.470;2023-04-10T00:31:44;101695.00;;;15.90
15079;BMP180;6932;51.438;5.470;2023-04-10T00:37:51;101690.00;;;15.80
15079;BMP180;6932;51.438;5.470;2023-04-10T00:40:19;101694.00;;;15.80
15079;BMP180;6932;51.438;5.470;2023-04-10T00:42:44;101694.00;;;15.80
15079;BMP180;6932;51.438;5.470;2023-04-10T00:45:10;101698.00;;;15.80
15079;BMP180;6932;51.438;5.470;2023-04-10T00:51:17;101682.00;;;15.80
15079;BMP180;6932;51.438;5.470;2023-04-10T00:53:51;101678.00;;;15.80
15079;BMP180;6932;51.438;5.470;2023-04-10T00:56:19;101675.00;;;15.80
15079;BMP180;6932;51.438;5.470;2023-04-10T00:58:46;101684.00;;;15.80
15079;BMP180;6932;51.438;5.470;2023-04-10T01:01:18;101673.00;;;15.80
15079;BMP180;6932;51.438;5.470;2023-04-10T01:03:44;101675.00;;;15.80
15079;BMP180;6932;51.438;5.470;2023-04-10T01:26:08;101661.00;;;15.60
15079;BMP180;6932;51.438;5.470;2023-04-10T01:29:15;101657.00;;;15.60
15079;BMP180;6932;51.438;5.470;2023-04-10T01:31:52;101668.00;;;15.50
15079;BMP180;6932;51.438;5.470;2023-04-10T01:34:24;101652.00;;;15.50
15079;BMP180;6932;51.438;5.470;2023-04-10T01:37:03;101650.00;;;15.50
15079;BMP180;6932;51.438;5.470;2023-04-10T01:39:35;101668.00;;;15.50
15079;BMP180;6932;51.438;5.470;2023-04-10T01:42:05;101659.00;;;15.50
15079;BMP180;6932;51.438;5.470;2023-04-10T01:44:33;101661.00;;;15.50
15079;BMP180;6932;51.438;5.470;2023-04-10T01:47:03;101650.00;;;15.50
15079;BMP180;6932;51.438;5.470;2023-04-10T01:49:33;101650.00;;;15.50
15079;BMP180;6932;51.438;5.470;2023-04-10T01:52:00;101646.00;;;15.50
15079;BMP180;6932;51.438;5.470;2023-04-10T01:54:32;101648.00;;;15.40
15079;BMP180;6932;51.438;5.470;2023-04-10T01:57:03;101636.00;;;15.40
15079;BMP180;6932;51.438;5.470;2023-04-10T01:59:29;101632.00;;;15.40
15079;BMP180;6932;51.438;5.470;2023-04-10T02:01:59;101623.00;;;15.30
15079;BMP180;6932;51.438;5.470;2023-04-10T02:04:26;101635.00;;;15.30
15079;BMP180;6932;51.438;5.470;2023-04-10T02:07:28;101627.00;;;15.30
15079;BMP180;6932;51.438;5.470;2023-04-10T02:20:30;101605.00;;;15.00
15079;BMP180;6932;51.438;5.470;2023-04-10T02:22:58;101593.00;;;15.00
15079;BMP180;6932;51.438;5.470;2023-04-10T02:25:33;101591.00;;;15.00
15079;BMP180;6932;51.438;5.470;2023-04-10T02:28:04;101588.00;;;15.00
15079;BMP180;6932;51.438;5.470;2023-04-10T02:30:30;101587.00;;;15.00
15079;BMP180;6932;51.438;5.470;2023-04-10T02:32:57;101583.00;;;15.00
15079;BMP180;6932;51.438;5.470;2023-04-10T02:35:23;101586.00;;;15.00
15079;BMP180;6932;51.438;5.470;2023-04-10T02:45:20;101589.00;;;14.90
15079;BMP180;6932;51.438;5.470;2023-04-10T02:47:46;101589.00;;;14.90
15079;BMP180;6932;51.438;5.470;2023-04-10T02:50:11;101593.00;;;14.90
15079;BMP180;6932;51.438;5.470;2023-04-10T02:52:37;101585.00;;;14.90
15079;BMP180;6932;51.438;5.470;2023-04-10T02:55:04;101588.00;;;14.90
15079;BMP180;6932;51.438;5.470;2023-04-10T03:08:42;101573.00;;;14.70
15079;BMP180;6932;51.438;5.470;2023-04-10T03:11:07;101577.00;;;14.70
15079;BMP180;6932;51.438;5.470;2023-04-10T03:13:34;101578.00;;;14.80
15079;BMP180;6932;51.438;5.470;2023-04-10T03:15:59;101579.00;;;14.80
15079;BMP180;6932;51.438;5.470;2023-04-10T03:18:25;101584.00;;;14.80
15079;BMP180;6932;51.438;5.470;2023-04-10T03:20:51;101592.00;;;14.80
15079;BMP180;6932;51.438;5.470;2023-04-10T03:23:16;101588.00;;;14.80
15079;BMP180;6932;51.438;5.470;2023-04-10T03:25:42;101594.00;;;14.70
15079;BMP180;6932;51.438;5.470;2023-04-10T03:31:57;101593.00;;;14.70
15079;BMP180;6932;51.438;5.470;2023-04-10T03:34:23;101574.00;;;14.70
15079;BMP180;6932;51.438;5.470;2023-04-10T03:36:49;101591.00;;;14.70
15079;BMP180;6932;51.438;5.470;2023-04-10T03:39:14;101587.00;;;14.70
15079;BMP180;6932;51.438;5.470;2023-04-10T03:41:40;101572.00;;;14.70
15079;BMP180;6932;51.438;5.470;2023-04-10T03:44:06;101567.00;;;14.70
15079;BMP180;6932;51.438;5.470;2023-04-10T03:46:32;101568.00;;;14.70
15079;BMP180;6932;51.438;5.470;2023-04-10T03:48:57;101562.00;;;14.60
15079;BMP180;6932;51.438;5.470;2023-04-10T03:51:23;101561.00;;;14.70
15079;BMP180;6932;51.438;5.470;2023-04-10T03:53:49;101550.00;;;14.60
15079;BMP180;6932;51.438;5.470;2023-04-10T03:56:15;101556.00;;;14.60
15079;BMP180;6932;51.438;5.470;2023-04-10T03:58:41;101557.00;;;14.60
15079;BMP180;6932;51.438;5.470;2023-04-10T04:01:07;101559.00;;;14.60
15079;BMP180;6932;51.438;5.470;2023-04-10T04:03:33;101556.00;;;14.60
15079;BMP180;6932;51.438;5.470;2023-04-10T04:05:59;101555.00;;;14.60
15079;BMP180;6932;51.438;5.470;2023-04-10T04:11:50;101543.00;;;14.50
15079;BMP180;6932;51.438;5.470;2023-04-10T04:14:16;101554.00;;;14.50
15079;BMP180;6932;51.438;5.470;2023-04-10T04:16:41;101546.00;;;14.50
15079;BMP180;6932;51.438;5.470;2023-04-10T04:19:07;101547.00;;;14.50
15079;BMP180;6932;51.438;5.470;2023-04-10T04:21:33;101537.00;;;14.50
15079;BMP180;6932;51.438;5.470;2023-04-10T04:23:58;101539.00;;;14.50
15079;BMP180;6932;51.438;5.470;2023-04-10T04:26:24;101539.00;;;14.50
15079;BMP180;6932;51.438;5.470;2023-04-10T04:28:50;101533.00;;;14.40
15079;BMP180;6932;51.438;5.470;2023-04-10T04:34:57;101526.00;;;14.30
15079;BMP180;6932;51.438;5.470;2023-04-10T04:37:22;101525.00;;;14.30
15079;BMP180;6932;51.438;5.470;2023-04-10T04:39:48;101533.00;;;14.30
15079;BMP180;6932;51.438;5.470;2023-04-10T04:42:14;101524.00;;;14.30
15079;BMP180;6932;51.438;5.470;2023-04-10T04:48:21;101519.00;;;14.20
15079;BMP180;6932;51.438;5.470;2023-04-10T04:58:08;101516.00;;;14.10
15079;BMP180;6932;51.438;5.470;2023-04-10T05:04:15;101506.00;;;14.10
15079;BMP180;6932;51.438;5.470;2023-04-10T05:10:22;101507.00;;;14.00
15079;BMP180;6932;51.438;5.470;2023-04-10T05:12:47;101499.00;;;14.00
15079;BMP180;6932;51.438;5.470;2023-04-10T05:15:13;101501.00;;;14.00
15079;BMP180;6932;51.438;5.470;2023-04-10T05:17:39;101489.00;;;14.10
15079;BMP180;6932;51.438;5.470;2023-04-10T05:20:05;101489.00;;;14.10
15079;BMP180;6932;51.438;5.470;2023-04-10T05:25:56;101490.00;;;14.00
15079;BMP180;6932;51.438;5.470;2023-04-10T05:28:22;101482.00;;;14.10
15079;BMP180;6932;51.438;5.470;2023-04-10T05:30:47;101484.00;;;14.10
15079;BMP180;6932;51.438;5.470;2023-04-10T05:33:35;101490.00;;;14.20
15079;BMP180;6932;51.438;5.470;2023-04-10T05:36:01;101490.00;;;14.20
15079;BMP180;6932;51.438;5.470;2023-04-10T05:38:27;101494.00;;;14.20
15079;BMP180;6932;51.438;5.470;2023-04-10T05:40:53;101492.00;;;14.20
15079;BMP180;6932;51.438;5.470;2023-04-10T05:50:57;101497.00;;;14.20
15079;BMP180;6932;51.438;5.470;2023-04-10T05:56:57;101494.00;;;14.30
15079;BMP180;6932;51.438;5.470;2023-04-10T06:00:16;101501.00;;;14.40
15079;BMP180;6932;51.438;5.470;2023-04-10T06:02:42;101494.00;;;14.40
15079;BMP180;6932;51.438;5.470;2023-04-10T06:05:08;101505.00;;;14.40
15079;BMP180;6932;51.438;5.470;2023-04-10T06:07:34;101497.00;;;14.50
15079;BMP180;6932;51.438;5.470;2023-04-10T06:26:35;101494.00;;;14.60
15079;BMP180;6932;51.438;5.470;2023-04-10T06:29:01;101483.00;;;14.70
15079;BMP180;6932;51.438;5.470;2023-04-10T06:31:27;101486.00;;;14.80
15079;BMP180;6932;51.438;5.470;2023-04-10T06:33:56;101482.00;;;14.80
15079;BMP180;6932;51.438;5.470;2023-04-10T06:36:21;101474.00;;;14.90
15079;BMP180;6932;51.438;5.470;2023-04-10T06:38:47;101470.00;;;14.90
15079;BMP180;6932;51.438;5.470;2023-04-10T06:41:13;101472.00;;;15.00
15079;BMP180;6932;51.438;5.470;2023-04-10T06:47:29;101471.00;;;15.10
15079;BMP180;6932;51.438;5.470;2023-04-10T06:49:56;101461.00;;;15.10
15079;BMP180;6932;51.438;5.470;2023-04-10T06:52:21;101442.00;;;15.20
15079;BMP180;6932;51.438;5.470;2023-04-10T06:54:47;101444.00;;;15.20
15079;BMP180;6932;51.438;5.470;2023-04-10T06:57:13;101430.00;;;15.30
15079;BMP180;6932;51.438;5.470;2023-04-10T06:59:39;101434.00;;;15.30
15079;BMP180;6932;51.438;5.470;2023-04-10T07:02:05;101433.00;;;15.40
15079;BMP180;6932;51.438;5.470;2023-04-10T07:04:31;101425.00;;;15.40
15079;BMP180;6932;51.438;5.470;2023-04-10T07:21:50;101410.00;;;15.60
15079;BMP180;6932;51.438;5.470;2023-04-10T07:24:16;101404.00;;;15.70
15079;BMP180;6932;51.438;5.470;2023-04-10T07:26:43;101387.00;;;15.70
15079;BMP180;6932;51.438;5.470;2023-04-10T07:29:09;101382.00;;;15.80
15079;BMP180;6932;51.438;5.470;2023-04-10T07:31:35;101385.00;;;15.80
15079;BMP180;6932;51.438;5.470;2023-04-10T07:34:02;101384.00;;;15.90
15079;BMP180;6932;51.438;5.470;2023-04-10T07:36:28;101379.00;;;16.00
15079;BMP180;6932;51.438;5.470;2023-04-10T07:38:54;101386.00;;;16.00
15079;BMP180;6932;51.438;5.470;2023-04-10T07:56:25;101350.00;;;16.40
15079;BMP180;6932;51.438;5.470;2023-04-10T07:58:51;101343.00;;;16.50
15079;BMP180;6932;51.438;5.470;2023-04-10T08:01:16;101348.00;;;16.70
15079;BMP180;6932;51.438;5.470;2023-04-10T08:03:44;101337.00;;;16.90
15079;BMP180;6932;51.438;5.470;2023-04-10T08:06:45;101314.00;;;17.10
15079;BMP180;6932;51.438;5.470;2023-04-10T08:09:11;101328.00;;;17.20
15079;BMP180;6932;51.438;5.470;2023-04-10T08:15:17;101311.00;;;17.50
15079;BMP180;6932;51.438;5.470;2023-04-10T08:17:43;101317.00;;;17.60
15079;BMP180;6932;51.438;5.470;2023-04-10T08:20:27;101301.00;;;17.70
15079;BMP180;6932;51.438;5.470;2023-04-10T08:22:53;101306.00;;;17.80
15079;BMP180;6932;51.438;5.470;2023-04-10T08:33:06;101312.00;;;17.80
15079;BMP180;6932;51.438;5.470;2023-04-10T08:35:32;101308.00;;;17.90
15079;BMP180;6932;51.438;5.470;2023-04-10T08:37:58;101309.00;;;17.90
15079;BMP180;6932;51.438;5.470;2023-04-10T08:40:23;101308.00;;;17.90
15079;BMP180;6932;51.438;5.470;2023-04-10T08:42:49;101299.00;;;17.90
15079;BMP180;6932;51.438;5.470;2023-04-10T08:45:15;101306.00;;;18.00
15079;BMP180;6932;51.438;5.470;2023-04-10T08:47:43;101296.00;;;18.00
15079;BMP180;6932;51.438;5.470;2023-04-10T08:53:53;101296.00;;;18.00
15079;BMP180;6932;51.438;5.470;2023-04-10T08:56:24;101293.00;;;18.00
15079;BMP180;6932;51.438;5.470;2023-04-10T08:58:51;101297.00;;;18.00
15079;BMP180;6932;51.438;5.470;2023-04-10T09:01:20;101300.00;;;18.10
15079;BMP180;6932;51.438;5.470;2023-04-10T09:03:47;101292.00;;;18.10
15079;BMP180;6932;51.438;5.470;2023-04-10T09:06:13;101294.00;;;18.10
15079;BMP180;6932;51.438;5.470;2023-04-10T09:19:54;101293.00;;;18.20
15079;BMP180;6932;51.438;5.470;2023-04-10T09:22:34;101290.00;;;18.20
15079;BMP180;6932;51.438;5.470;2023-04-10T09:25:03;101283.00;;;18.30
15079;BMP180;6932;51.438;5.470;2023-04-10T09:27:34;101282.00;;;18.40
15079;BMP180;6932;51.438;5.470;2023-04-10T09:30:01;101280.00;;;18.40
15079;BMP180;6932;51.438;5.470;2023-04-10T09:32:45;101274.00;;;18.40
15079;BMP180;6932;51.438;5.470;2023-04-10T09:35:14;101257.00;;;18.50
15079;BMP180;6932;51.438;5.470;2023-04-10T09:37:43;101247.00;;;18.50
15079;BMP180;6932;51.438;5.470;2023-04-10T10:06:05;101203.00;;;18.70
15079;BMP180;6932;51.438;5.470;2023-04-10T10:08:33;101214.00;;;18.80
15079;BMP180;6932;51.438;5.470;2023-04-10T10:11:03;101208.00;;;18.90
15079;BMP180;6932;51.438;5.470;2023-04-10T10:14:10;101214.00;;;19.00
15079;BMP180;6932;51.438;5.470;2023-04-10T10:16:42;101201.00;;;19.00
15079;BMP180;6932;51.438;5.470;2023-04-10T10:20:04;101186.00;;;19.10
15079;BMP180;6932;51.438;5.470;2023-04-10T10:22:34;101186.00;;;19.20
15079;BMP180;6932;51.438;5.470;2023-04-10T10:25:01;101188.00;;;19.20
15079;BMP180;6932;51.438;5.470;2023-04-10T10:31:09;101174.00;;;19.40
15079;BMP180;6932;51.438;5.470;2023-04-10T10:33:37;101172.00;;;19.50
15079;BMP180;6932;51.438;5.470;2023-04-10T10:36:05;101166.00;;;19.60
15079;BMP180;6932;51.438;5.470;2023-04-10T10:38:33;101148.00;;;19.70
15079;BMP180;6932;51.438;5.470;2023-04-10T10:41:26;101140.00;;;19.80
15079;BMP180;6932;51.438;5.470;2023-04-10T10:47:29;101144.00;;;20.00
15079;BMP180;6932;51.438;5.470;2023-04-10T10:50:02;101136.00;;;20.10
15079;BMP180;6932;51.438;5.470;2023-04-10T11:03:40;101103.00;;;20.20
15079;BMP180;6932;51.438;5.470;2023-04-10T11:06:08;101113.00;;;20.30
15079;BMP180;6932;51.438;5.470;2023-04-10T11:08:38;101115.00;;;20.30
15079;BMP180;6932;51.438;5.470;2023-04-10T11:11:39;101109.00;;;20.40
15079;BMP180;6932;51.438;5.470;2023-04-10T11:19:04;101100.00;;;20.50
15079;BMP180;6932;51.438;5.470;2023-04-10T11:21:31;101105.00;;;20.60
15079;BMP180;6932;51.438;5.470;2023-04-10T12:03:45;101036.00;;;21.10
15079;BMP180;6932;51.438;5.470;2023-04-10T12:06:34;101022.00;;;21.20
15079;BMP180;6932;51.438;5.470;2023-04-10T12:08:59;101021.00;;;21.20
15079;BMP180;6932;51.438;5.470;2023-04-10T12:12:01;101018.00;;;21.30
15079;BMP180;6932;51.438;5.470;2023-04-10T12:17:02;101025.00;;;21.40
15079;BMP180;6932;51.438;5.470;2023-04-10T12:19:29;101004.00;;;21.40
15079;BMP180;6932;51.438;5.470;2023-04-10T12:25:36;101008.00;;;21.40
15079;BMP180;6932;51.438;5.470;2023-04-10T12:28:01;100998.00;;;21.40
15079;BMP180;6932;51.438;5.470;2023-04-10T12:30:27;100993.00;;;21.40
15079;BMP180;6932;51.438;5.470;2023-04-10T12:32:54;100987.00;;;21.40
15079;BMP180;6932;51.438;5.470;2023-04-10T12:35:37;100991.00;;;21.50
15079;BMP180;6932;51.438;5.470;2023-04-10T12:38:03;100978.00;;;21.50
15079;BMP180;6932;51.438;5.470;2023-04-10T12:40:29;100974.00;;;21.50
15079;BMP180;6932;51.438;5.470;2023-04-10T12:43:01;100970.00;;;21.50
15079;BMP180;6932;51.438;5.470;2023-04-10T12:45:43;100972.00;;;21.50
15079;BMP180;6932;51.438;5.470;2023-04-10T12:48:09;100971.00;;;21.50
15079;BMP180;6932;51.438;5.470;2023-04-10T12:50:48;100971.00;;;21.50
15079;BMP180;6932;51.438;5.470;2023-04-10T12:53:14;100974.00;;;21.50
15079;BMP180;6932;51.438;5.470;2023-04-10T12:59:09;100976.00;;;21.40
15079;BMP180;6932;51.438;5.470;2023-04-10T13:09:55;100963.00;;;21.30
15079;BMP180;6932;51.438;5.470;2023-04-10T13:12:21;100936.00;;;21.30
15079;BMP180;6932;51.438;5.470;2023-04-10T13:18:50;100923.00;;;21.30
15079;BMP180;6932;51.438;5.470;2023-04-10T13:21:15;100923.00;;;21.30
15079;BMP180;6932;51.438;5.470;2023-04-10T13:23:47;100924.00;;;21.40
15079;BMP180;6932;51.438;5.470;2023-04-10T13:26:13;100919.00;;;21.40
15079;BMP180;6932;51.438;5.470;2023-04-10T13:28:39;100902.00;;;21.40
15079;BMP180;6932;51.438;5.470;2023-04-10T13:31:05;100904.00;;;21.40
15079;BMP180;6932;51.438;5.470;2023-04-10T13:33:31;100881.00;;;21.40
15079;BMP180;6932;51.438;5.470;2023-04-10T13:39:46;100885.00;;;21.40
15079;BMP180;6932;51.438;5.470;2023-04-10T13:42:12;100871.00;;;21.40
15079;BMP180;6932;51.438;5.470;2023-04-10T13:44:38;100874.00;;;21.40
15079;BMP180;6932;51.438;5.470;2023-04-10T13:47:04;100862.00;;;21.40
15079;BMP180;6932;51.438;5.470;2023-04-10T13:49:30;100853.00;;;21.40
15079;BMP180;6932;51.438;5.470;2023-04-10T13:51:56;100854.00;;;21.40
15079;BMP180;6932;51.438;5.470;2023-04-10T13:54:23;100823.00;;;21.50
15079;BMP180;6932;51.438;5.470;2023-04-10T13:56:48;100847.00;;;21.50
15079;BMP180;6932;51.438;5.470;2023-04-10T14:02:55;100816.00;;;21.40
15079;BMP180;6932;51.438;5.470;2023-04-10T14:05:21;100809.00;;;21.50
15079;BMP180;6932;51.438;5.470;2023-04-10T14:07:47;100805.00;;;21.50
15079;BMP180;6932;51.438;5.470;2023-04-10T14:10:12;100807.00;;;21.50
15079;BMP180;6932;51.438;5.470;2023-04-10T14:12:38;100780.00;;;21.50
15079;BMP180;6932;51.438;5.470;2023-04-10T14:15:04;100800.00;;;21.50
15079;BMP180;6932;51.438;5.470;2023-04-10T14:24:52;100806.00;;;21.40
15079;BMP180;6932;51.438;5.470;2023-04-10T14:27:18;100794.00;;;21.30
15079;BMP180;6932;51.438;5.470;2023-04-10T14:29:43;100804.00;;;21.30
15079;BMP180;6932;51.438;5.470;2023-04-10T14:35:50;100809.00;;;21.20
15079;BMP180;6932;51.438;5.470;2023-04-10T14:41:56;100793.00;;;21.00
15079;BMP180;6932;51.438;5.470;2023-04-10T14:44:22;100793.00;;;20.90
15079;BMP180;6932;51.438;5.470;2023-04-10T14:50:31;100798.00;;;20.80
15079;BMP180;6932;51.438;5.470;2023-04-10T14:52:57;100801.00;;;20.70
15079;BMP180;6932;51.438;5.470;2023-04-10T14:55:25;100769.00;;;20.70
15079;BMP180;6932;51.438;5.470;2023-04-10T15:01:34;100779.00;;;20.50
15079;BMP180;6932;51.438;5.470;2023-04-10T15:04:00;100761.00;;;20.50
15079;BMP180;6932;51.438;5.470;2023-04-10T15:06:35;100769.00;;;20.40
15079;BMP180;6932;51.438;5.470;2023-04-10T15:09:02;100775.00;;;20.40
15079;BMP180;6932;51.438;5.470;2023-04-10T15:11:27;100748.00;;;20.40
15079;BMP180;6932;51.438;5.470;2023-04-10T15:13:53;100726.00;;;20.30
15079;BMP180;6932;51.438;5.470;2023-04-10T15:16:19;100729.00;;;20.30
15079;BMP180;6932;51.438;5.470;2023-04-10T15:22:26;100721.00;;;20.20
15079;BMP180;6932;51.438;5.470;2023-04-10T15:24:53;100701.00;;;20.20
15079;BMP180;6932;51.438;5.470;2023-04-10T15:27:19;100715.00;;;20.20
15079;BMP180;6932;51.438;5.470;2023-04-10T15:29:48;100700.00;;;20.20
15079;BMP180;6932;51.438;5.470;2023-04-10T15:32:14;100705.00;;;20.20
15079;BMP180;6932;51.438;5.470;2023-04-10T15:34:39;100692.00;;;20.20
15079;BMP180;6932;51.438;5.470;2023-04-10T15:37:05;100697.00;;;20.20
15079;BMP180;6932;51.438;5.470;2023-04-10T15:39:31;100698.00;;;20.20
15079;BMP180;6932;51.438;5.470;2023-04-10T15:41:57;100698.00;;;20.10
15079;BMP180;6932;51.438;5.470;2023-04-10T15:44:25;100690.00;;;20.10
15079;BMP180;6932;51.438;5.470;2023-04-10T15:46:57;100699.00;;;20.10
15079;BMP180;6932;51.438;5.470;2023-04-10T15:49:22;100683.00;;;20.10
15079;BMP180;6932;51.438;5.470;2023-04-10T15:51:48;100701.00;;;20.10
15079;BMP180;6932;51.438;5.470;2023-04-10T15:54:14;100689.00;;;20.10
15079;BMP180;6932;51.438;5.470;2023-04-10T15:56:40;100700.00;;;20.20
15079;BMP180;6932;51.438;5.470;2023-04-10T15:59:06;100681.00;;;20.20
15079;BMP180;6932;51.438;5.470;2023-04-10T16:01:32;100666.00;;;20.10
15079;BMP180;6932;51.438;5.470;2023-04-10T16:15:10;100642.00;;;19.90
15079;BMP180;6932;51.438;5.470;2023-04-10T16:17:36;100640.00;;;19.90
15079;BMP180;6932;51.438;5.470;2023-04-10T16:20:06;100637.00;;;19.90
15079;BMP180;6932;51.438;5.470;2023-04-10T16:22:32;100626.00;;;19.90
15079;BMP180;6932;51.438;5.470;2023-04-10T16:24:59;100648.00;;;19.90
15079;BMP180;6932;51.438;5.470;2023-04-10T16:27:25;100640.00;;;19.90
15079;BMP180;6932;51.438;5.470;2023-04-10T16:29:50;100640.00;;;19.90
15079;BMP180;6932;51.438;5.470;2023-04-10T16:32:57;100651.00;;;19.90
15079;BMP180;6932;51.438;5.470;2023-04-10T16:35:31;100666.00;;;19.90
15079;BMP180;6932;51.438;5.470;2023-04-10T16:37:57;100641.00;;;19.90
15079;BMP180;6932;51.438;5.470;2023-04-10T16:40:23;100651.00;;;20.00
15079;BMP180;6932;51.438;5.470;2023-04-10T16:42:56;100662.00;;;19.90
15079;BMP180;6932;51.438;5.470;2023-04-10T16:45:22;100656.00;;;19.90
15079;BMP180;6932;51.438;5.470;2023-04-10T16:47:48;100671.00;;;19.90
15079;BMP180;6932;51.438;5.470;2023-04-10T16:50:14;100678.00;;;19.90
15079;BMP180;6932;51.438;5.470;2023-04-10T16:52:39;100678.00;;;19.90
15079;BMP180;6932;51.438;5.470;2023-04-10T17:47:14;100743.00;;;18.00
15079;BMP180;6932;51.438;5.470;2023-04-10T17:53:22;100719.00;;;18.00
15079;BMP180;6932;51.438;5.470;2023-04-10T17:55:48;100713.00;;;18.00
15079;BMP180;6932;51.438;5.470;2023-04-10T17:58:14;100705.00;;;18.00
15079;BMP180;6932;51.438;5.470;2023-04-10T18:00:42;100705.00;;;18.00
15079;BMP180;6932;51.438;5.470;2023-04-10T18:03:08;100703.00;;;17.90
15079;BMP180;6932;51.438;5.470;2023-04-10T18:20:27;100551.00;;;17.70
15079;BMP180;6932;51.438;5.470;2023-04-10T18:22:53;100535.00;;;17.60
15079;BMP180;6932;51.438;5.470;2023-04-10T18:25:18;100524.00;;;17.40
15079;BMP180;6932;51.438;5.470;2023-04-10T18:27:44;100528.00;;;17.20
15079;BMP180;6932;51.438;5.470;2023-04-10T18:30:14;100551.00;;;17.00
15079;BMP180;6932;51.438;5.470;2023-04-10T18:32:40;100542.00;;;16.90
15079;BMP180;6932;51.438;5.470;2023-04-10T18:35:07;100542.00;;;16.80
15079;BMP180;6932;51.438;5.470;2023-04-10T18:37:33;100546.00;;;16.70
15079;BMP180;6932;51.438;5.470;2023-04-10T18:47:20;100672.00;;;16.50
15079;BMP180;6932;51.438;5.470;2023-04-10T18:49:46;100661.00;;;16.50
15079;BMP180;6932;51.438;5.470;2023-04-10T18:52:12;100665.00;;;16.60
15079;BMP180;6932;51.438;5.470;2023-04-10T18:54:37;100632.00;;;16.70
15079;BMP180;6932;51.438;5.470;2023-04-10T18:57:03;100619.00;;;16.80
15079;BMP180;6932;51.438;5.470;2023-04-10T18:59:29;100628.00;;;16.90
15079;BMP180;6932;51.438;5.470;2023-04-10T19:01:56;100637.00;;;16.90
15079;BMP180;6932;51.438;5.470;2023-04-10T19:04:23;100619.00;;;17.00
15079;BMP180;6932;51.438;5.470;2023-04-10T19:10:39;100591.00;;;17.00
15079;BMP180;6932;51.438;5.470;2023-04-10T19:13:10;100566.00;;;17.00
15079;BMP180;6932;51.438;5.470;2023-04-10T19:15:41;100583.00;;;17.00
15079;BMP180;6932;51.438;5.470;2023-04-10T19:18:07;100608.00;;;17.10
15079;BMP180;6932;51.438;5.470;2023-04-10T19:20:34;100595.00;;;17.10
15079;BMP180;6932;51.438;5.470;2023-04-10T19:22:59;100609.00;;;17.10
15079;BMP180;6932;51.438;5.470;2023-04-10T19:25:25;100645.00;;;17.10
15079;BMP180;6932;51.438;5.470;2023-04-10T19:27:51;100623.00;;;17.10
15079;BMP180;6932;51.438;5.470;2023-04-10T19:30:17;100601.00;;;17.10
15079;BMP180;6932;51.438;5.470;2023-04-10T19:32:42;100596.00;;;17.10
15079;BMP180;6932;51.438;5.470;2023-04-10T19:35:09;100600.00;;;17.10
15079;BMP180;6932;51.438;5.470;2023-04-10T19:37:34;100592.00;;;17.10
15079;BMP180;6932;51.438;5.470;2023-04-10T19:40:00;100572.00;;;17.10
15079;BMP180;6932;51.438;5.470;2023-04-10T19:42:26;100569.00;;;17.10
15079;BMP180;6932;51.438;5.470;2023-04-10T19:44:51;100562.00;;;17.10
15079;BMP180;6932;51.438;5.470;2023-04-10T19:47:17;100564.00;;;17.10
15079;BMP180;6932;51.438;5.470;2023-04-10T20:04:36;100575.00;;;17.00
15079;BMP180;6932;51.438;5.470;2023-04-10T20:07:01;100582.00;;;17.00
15079;BMP180;6932;51.438;5.470;2023-04-10T20:09:27;100562.00;;;17.00
15079;BMP180;6932;51.438;5.470;2023-04-10T20:11:53;100568.00;;;17.00
15079;BMP180;6932;51.438;5.470;2023-04-10T20:14:19;100573.00;;;17.00
15079;BMP180;6932;51.438;5.470;2023-04-10T20:16:45;100565.00;;;17.10
15079;BMP180;6932;51.438;5.470;2023-04-10T20:19:11;100568.00;;;17.10
15079;BMP180;6932;51.438;5.470;2023-04-10T20:21:37;100557.00;;;17.00
15079;BMP180;6932;51.438;5.470;2023-04-10T20:35:15;100553.00;;;16.90
15079;BMP180;6932;51.438;5.470;2023-04-10T20:37:40;100553.00;;;16.90
15079;BMP180;6932;51.438;5.470;2023-04-10T20:40:07;100563.00;;;16.90
15079;BMP180;6932;51.438;5.470;2023-04-10T20:42:33;100571.00;;;16.90
15079;BMP180;6932;51.438;5.470;2023-04-10T20:44:58;100573.00;;;17.00
15079;BMP180;6932;51.438;5.470;2023-04-10T20:47:24;100566.00;;;17.00
15079;BMP180;6932;51.438;5.470;2023-04-10T20:49:50;100565.00;;;17.00
15079;BMP180;6932;51.438;5.470;2023-04-10T20:52:16;100553.00;;;17.00
15079;BMP180;6932;51.438;5.470;2023-04-10T21:05:53;100554.00;;;16.90
15079;BMP180;6932;51.438;5.470;2023-04-10T21:08:19;100550.00;;;16.90
15079;BMP180;6932;51.438;5.470;2023-04-10T21:10:44;100544.00;;;16.90
15079;BMP180;6932;51.438;5.470;2023-04-10T21:13:14;100558.00;;;16.90
15079;BMP180;6932;51.438;5.470;2023-04-10T21:15:41;100559.00;;;16.90
15079;BMP180;6932;51.438;5.470;2023-04-10T21:18:07;100575.00;;;16.90
15079;BMP180;6932;51.438;5.470;2023-04-10T21:20:33;100570.00;;;16.90
15079;BMP180;6932;51.438;5.470;2023-04-10T21:23:00;100561.00;;;16.90
15079;BMP180;6932;51.438;5.470;2023-04-10T21:25:26;100554.00;;;16.80
15079;BMP180;6932;51.438;5.470;2023-04-10T21:27:51;100555.00;;;16.80
15079;BMP180;6932;51.438;5.470;2023-04-10T21:30:17;100563.00;;;16.80
15079;BMP180;6932;51.438;5.470;2023-04-10T21:32:43;100565.00;;;16.80
15079;BMP180;6932;51.438;5.470;2023-04-10T21:35:09;100575.00;;;16.80
15079;BMP180;6932;51.438;5.470;2023-04-10T21:37:35;100548.00;;;16.80
15079;BMP180;6932;51.438;5.470;2023-04-10T21:40:01;100554.00;;;16.80
15079;BMP180;6932;51.438;5.470;2023-04-10T21:42:26;100552.00;;;16.70
15079;BMP180;6932;51.438;5.470;2023-04-10T21:44:52;100557.00;;;16.70
15079;BMP180;6932;51.438;5.470;2023-04-10T21:47:19;100555.00;;;16.70